Time;durP1;ratioP1;P1;durP2;ratioP2;P2;SDS_P1;SDS_P2;PMS_P1;PMS_P2;Temp;Humidity;BMP_temperature;BMP_pressure;BME280_temperature;BME280_humidity;BME280_pressure;Samples;Min_cycle;Max_cycle;Signal;HPM_P1;HPM_P2
2023/12/10 00:08:44;;;;;;;17.53;2.20;;;9.00;99.90;;;;;;21142333;28;20043;-78
2023/12/10 00:18:45;;;;;;;13.90;2.23;;;8.90;99.90;;;;;;21158194;28;20031;-78
2023/12/10 00:28:45;;;;;;;13.97;2.57;;;9.00;99.90;;;;;;21152820;28;20105;-78
2023/12/10 00:38:46;;;;;;;16.27;2.43;;;8.90;99.90;;;;;;21154428;28;20031;-77
2023/12/10 00:48:47;;;;;;;7.70;1.87;;;8.70;99.90;;;;;;21136739;28;20109;-77
2023/12/10 00:58:48;;;;;;;5.47;1.30;;;8.60;99.90;;;;;;21147902;28;20059;-76
2023/12/10 01:08:49;;;;;;;21.23;2.60;;;8.40;99.90;;;;;;21147269;28;20027;-77
2023/12/10 01:18:49;;;;;;;17.17;2.73;;;8.30;99.90;;;;;;21145189;28;20281;-77
2023/12/10 01:28:51;;;;;;;16.30;2.63;;;8.30;99.90;;;;;;21146810;28;20019;-77
2023/12/10 01:38:52;;;;;;;27.38;3.22;;;8.30;99.90;;;;;;21109261;28;20126;-77
2023/12/10 01:48:55;;;;;;;21.30;3.10;;;8.20;99.90;;;;;;21103626;28;20115;-77
2023/12/10 01:58:56;;;;;;;19.15;2.58;;;8.30;99.90;;;;;;21089837;28;20403;-77
2023/12/10 02:08:57;;;;;;;;;;;8.30;99.90;;;;;;21079879;28;20036;-77
2023/12/10 02:18:57;;;;;;;17.50;2.10;;;8.30;99.90;;;;;;21100249;28;20074;-77
2023/12/10 02:28:58;;;;;;;26.53;3.13;;;8.30;99.90;;;;;;21089750;28;20047;-77
2023/12/10 02:38:59;;;;;;;23.23;3.03;;;8.20;99.90;;;;;;21094825;28;20027;-77
2023/12/10 02:49:00;;;;;;;17.17;3.20;;;8.30;99.90;;;;;;21094320;28;20028;-77
2023/12/10 02:59:01;;;;;;;12.37;2.40;;;8.30;99.90;;;;;;21089581;28;20093;-77
2023/12/10 03:09:02;;;;;;;22.52;2.72;;;8.40;99.90;;;;;;21093617;28;20028;-77
2023/12/10 03:19:03;;;;;;;21.67;2.33;;;8.40;99.90;;;;;;21088051;28;20076;-77
2023/12/10 03:29:04;;;;;;;13.20;2.08;;;8.30;99.90;;;;;;21090593;28;20273;-77
2023/12/10 03:39:05;;;;;;;18.23;3.00;;;8.30;99.90;;;;;;21095741;28;20027;-77
2023/12/10 03:49:06;;;;;;;23.60;2.63;;;8.30;99.90;;;;;;21111863;28;20023;-77
2023/12/10 03:59:07;;;;;;;14.90;2.30;;;8.50;99.90;;;;;;21085971;28;20079;-78
2023/12/10 04:09:08;;;;;;;17.63;2.67;;;8.40;99.90;;;;;;21111854;28;20318;-78
2023/12/10 04:19:09;;;;;;;26.65;3.40;;;8.30;99.90;;;;;;21112359;28;20038;-77
2023/12/10 04:29:10;;;;;;;10.45;1.98;;;8.30;99.90;;;;;;21114377;28;20046;-78
2023/12/10 04:39:11;;;;;;;14.37;2.10;;;8.30;99.90;;;;;;21122362;28;20027;-78
2023/12/10 04:49:12;;;;;;;16.53;2.13;;;8.30;99.90;;;;;;21116793;28;20172;-78
2023/12/10 04:59:13;;;;;;;16.63;2.38;;;8.20;99.90;;;;;;21105804;28;20031;-78
2023/12/10 05:09:14;;;;;;;12.63;2.00;;;8.10;99.90;;;;;;21106346;28;20361;-78
2023/12/10 05:19:14;;;;;;;15.80;2.30;;;8.00;99.90;;;;;;21103769;28;20032;-78
2023/12/10 05:29:15;;;;;;;16.65;2.35;;;8.10;99.90;;;;;;21100675;28;20076;-78
2023/12/10 05:39:16;;;;;;;12.77;1.90;;;7.90;99.90;;;;;;21084312;28;20050;-78
2023/12/10 05:49:17;;;;;;;10.10;1.97;;;7.90;99.90;;;;;;21104902;28;20047;-77
2023/12/10 05:59:18;;;;;;;13.60;1.75;;;7.90;99.90;;;;;;21095982;28;20056;-77
2023/12/10 06:09:18;;;;;;;18.00;1.90;;;8.00;99.90;;;;;;21085393;28;20057;-78
2023/12/10 06:19:19;;;;;;;33.27;10.07;;;7.90;99.90;;;;;;21081302;28;20322;-78
2023/12/10 06:29:20;;;;;;;22.20;7.03;;;8.00;99.90;;;;;;21080400;28;20020;-77
2023/12/10 06:39:21;;;;;;;15.87;2.23;;;7.90;99.90;;;;;;21090415;28;20035;-77
2023/12/10 06:49:23;;;;;;;8.65;2.67;;;8.00;99.90;;;;;;21067117;28;20140;-78
2023/12/10 06:59:23;;;;;;;12.57;2.30;;;7.90;99.90;;;;;;21086759;28;20032;-78
2023/12/10 07:09:24;;;;;;;17.73;2.27;;;8.00;99.90;;;;;;21097090;28;20046;-77
2023/12/10 07:19:25;;;;;;;22.67;2.50;;;8.00;99.90;;;;;;21114224;28;20141;-78
2023/12/10 07:29:26;;;;;;;18.03;1.60;;;8.00;99.90;;;;;;21093893;28;20104;-77
2023/12/10 07:39:27;;;;;;;12.90;2.03;;;8.00;99.90;;;;;;21096313;28;20301;-77
2023/12/10 07:49:28;;;;;;;9.13;1.60;;;8.10;99.90;;;;;;21084760;28;20023;-77
2023/12/10 07:59:28;;;;;;;11.35;2.20;;;8.20;99.90;;;;;;21092537;28;20052;-77
2023/12/10 08:09:29;;;;;;;12.43;1.97;;;8.30;99.90;;;;;;21087559;28;20031;-78
2023/12/10 08:19:30;;;;;;;19.40;2.38;;;8.30;99.90;;;;;;21088071;28;20365;-77
2023/12/10 08:29:31;;;;;;;11.30;2.10;;;8.40;99.90;;;;;;21091178;28;20124;-78
2023/12/10 08:39:32;;;;;;;12.07;2.57;;;8.30;99.90;;;;;;21067602;28;20024;-79
2023/12/10 08:49:33;;;;;;;25.07;2.83;;;8.20;99.90;;;;;;21059614;28;20542;-78
2023/12/10 08:59:33;;;;;;;17.65;2.58;;;8.30;99.90;;;;;;21106074;28;20025;-77
2023/12/10 09:09:34;;;;;;;9.33;2.30;;;8.30;99.90;;;;;;21097755;28;20042;-79
2023/12/10 09:19:35;;;;;;;10.67;2.07;;;8.30;99.90;;;;;;21105025;28;20326;-78
2023/12/10 09:29:38;;;;;;;4.53;1.80;;;8.20;99.90;;;;;;21114300;28;20025;-79
2023/12/10 09:39:39;;;;;;;8.90;1.40;;;8.00;99.90;;;;;;21116075;28;20295;-76
2023/12/10 09:49:41;;;;;;;10.27;1.90;;;7.80;99.90;;;;;;21089014;28;20031;-78
2023/12/10 09:59:42;;;;;;;11.27;1.80;;;7.80;99.90;;;;;;21099727;28;20086;-78
2023/12/10 10:09:45;;;;;;;16.63;2.78;;;7.80;99.90;;;;;;21078451;28;20409;-76
2023/12/10 10:19:48;;;;;;;8.63;1.70;;;7.70;99.90;;;;;;21045247;28;20063;-78
2023/12/10 10:29:53;;;;;;;6.88;1.45;;;7.80;99.90;;;;;;21068096;28;20027;-77
2023/12/10 10:39:55;;;;;;;13.70;1.38;;;8.00;99.90;;;;;;21105477;28;20192;-78
2023/12/10 10:49:58;;;;;;;10.50;2.03;;;8.00;99.90;;;;;;21118946;28;20023;-78
2023/12/10 10:59:58;;;;;;;10.10;1.80;;;8.00;99.90;;;;;;21132186;28;20035;-78
2023/12/10 11:10:03;;;;;;;8.87;1.63;;;8.10;99.90;;;;;;21086285;28;20089;-77
2023/12/10 11:20:05;;;;;;;10.10;2.00;;;8.40;99.90;;;;;;21124870;28;20480;-76
2023/12/10 11:30:07;;;;;;;9.55;2.15;;;8.40;99.90;;;;;;21088558;28;20051;-77
2023/12/10 11:40:08;;;;;;;8.55;1.33;;;8.60;99.90;;;;;;21065070;28;20078;-76
2023/12/10 11:50:10;;;;;;;10.15;2.00;;;8.60;99.90;;;;;;21087807;28;20059;-77
2023/12/10 12:00:13;;;;;;;10.55;2.17;;;8.70;99.90;;;;;;21071855;28;20016;-77
2023/12/10 12:10:13;;;;;;;11.77;2.35;;;8.90;99.90;;;;;;21112644;28;20032;-77
2023/12/10 12:20:17;;;;;;;7.83;1.97;;;9.10;99.90;;;;;;21105735;28;20031;-77
2023/12/10 12:30:18;;;;;;;10.60;1.95;;;9.20;99.90;;;;;;21107601;28;20023;-77
2023/12/10 12:40:20;;;;;;;;;;;9.70;99.90;;;;;;21098546;28;20038;-77
2023/12/10 12:50:21;;;;;;;17.30;1.97;;;10.10;99.90;;;;;;21073202;28;19908;-78
2023/12/10 13:00:22;;;;;;;13.93;2.10;;;10.40;99.90;;;;;;21086146;28;20429;-77
2023/12/10 13:10:23;;;;;;;11.60;1.57;;;10.70;99.90;;;;;;21102366;28;20043;-77
2023/12/10 13:20:23;;;;;;;4.63;1.30;;;11.10;99.90;;;;;;21079272;28;20066;-77
2023/12/10 13:30:24;;;;;;;4.87;1.30;;;11.70;99.90;;;;;;21105338;28;20078;-77
2023/12/10 13:40:25;;;;;;;9.93;1.30;;;11.10;99.90;;;;;;21118293;28;20042;-77
2023/12/10 13:50:27;;;;;;;5.97;1.20;;;10.80;99.90;;;;;;21111348;28;20024;-77
2023/12/10 14:00:28;;;;;;;14.75;2.20;;;10.80;99.90;;;;;;21079887;28;20156;-78
2023/12/10 14:10:28;;;;;;;13.90;1.70;;;11.00;99.90;;;;;;21116379;28;20288;-77
2023/12/10 14:20:29;;;;;;;12.37;1.73;;;11.30;99.90;;;;;;21087150;28;20039;-77
2023/12/10 14:30:30;;;;;;;8.43;1.37;;;10.80;99.90;;;;;;21087877;28;20032;-77
2023/12/10 14:40:31;;;;;;;6.40;1.40;;;10.50;99.90;;;;;;21091026;28;20024;-77
2023/12/10 14:50:32;;;;;;;17.77;8.73;;;10.30;99.90;;;;;;21115812;28;20558;-77
2023/12/10 15:00:33;;;;;;;33.10;17.70;;;9.90;99.90;;;;;;21115165;28;20035;-77
2023/12/10 15:10:34;;;;;;;;;;;9.50;99.90;;;;;;21115512;28;20560;-77
2023/12/10 15:20:34;;;;;;;18.30;7.07;;;8.90;99.90;;;;;;21116624;28;19916;-77
2023/12/10 15:30:35;;;;;;;25.97;8.57;;;8.30;99.90;;;;;;21092743;28;20029;-77
2023/12/10 15:40:36;;;;;;;19.37;5.70;;;7.50;99.90;;;;;;21103149;28;20028;-77
2023/12/10 15:50:37;;;;;;;20.03;9.10;;;7.20;99.90;;;;;;21100592;28;20473;-77
2023/12/10 16:00:38;;;;;;;;;;;7.00;99.90;;;;;;21087778;28;20032;-77
2023/12/10 16:10:39;;;;;;;62.70;23.30;;;6.80;99.90;;;;;;21105140;28;19920;-77
2023/12/10 16:20:39;;;;;;;;;;;6.10;99.90;;;;;;21108136;28;20123;-77
2023/12/10 16:30:40;;;;;;;17.70;5.10;;;5.70;99.90;;;;;;21095024;28;19908;-77
2023/12/10 16:40:41;;;;;;;;;;;5.90;99.90;;;;;;21130152;28;20036;-78
2023/12/10 16:50:42;;;;;;;35.93;12.70;;;5.80;99.90;;;;;;21097579;28;20229;-77
2023/12/10 17:00:42;;;;;;;;;;;5.90;99.90;;;;;;21073674;28;20305;-77
2023/12/10 17:10:43;;;;;;;12.03;3.37;;;5.90;99.90;;;;;;21086887;28;20435;-77
2023/12/10 17:20:44;;;;;;;;;;;5.80;99.90;;;;;;21114786;28;20745;-77
2023/12/10 17:30:45;;;;;;;14.20;2.92;;;5.10;99.90;;;;;;21085833;28;20284;-77
2023/12/10 17:40:46;;;;;;;4.10;1.98;;;5.20;99.90;;;;;;21090855;28;20042;-77
2023/12/10 17:50:47;;;;;;;24.92;9.30;;;5.20;99.90;;;;;;21088565;28;20025;-76
2023/12/10 18:00:52;;;;;;;;;;;5.40;99.90;;;;;;21088192;28;20027;-77
2023/12/10 18:10:53;;;;;;;19.02;1.90;;;5.50;99.90;;;;;;21096105;28;20372;-76
2023/12/10 18:20:54;;;;;;;;;;;5.60;99.90;;;;;;21111052;28;20066;-77
2023/12/10 18:30:55;;;;;;;6.15;2.10;;;5.90;99.90;;;;;;21108559;28;19908;-76
2023/12/10 18:40:56;;;;;;;;;;;5.90;99.90;;;;;;21099175;28;20024;-77
2023/12/10 18:50:56;;;;;;;14.77;5.60;;;5.70;99.90;;;;;;21104329;28;19912;-76
2023/12/10 19:01:01;;;;;;;;;;;5.50;99.90;;;;;;21095528;28;20023;-77
2023/12/10 19:11:02;;;;;;;16.45;4.22;;;5.80;99.90;;;;;;21083632;28;20290;-77
2023/12/10 19:21:04;;;;;;;;;;;6.20;99.90;;;;;;21077988;28;20036;-75
2023/12/10 19:31:05;;;;;;;54.38;13.65;;;5.90;99.90;;;;;;21106101;28;19908;-77
2023/12/10 19:41:06;;;;;;;;;;;5.90;99.90;;;;;;21103365;28;20023;-78
2023/12/10 19:51:07;;;;;;;8.05;1.58;;;6.00;99.90;;;;;;21132510;28;19908;-78
2023/12/10 20:01:07;;;;;;;6.25;2.22;;;6.30;99.90;;;;;;21120636;28;20047;-77
2023/12/10 20:11:09;;;;;;;3.63;0.80;;;6.30;99.90;;;;;;21135285;28;20016;-77
2023/12/10 20:21:10;;;;;;;11.05;3.35;;;6.70;99.90;;;;;;21135463;28;20055;-77
2023/12/10 20:31:10;;;;;;;11.50;2.92;;;6.20;99.90;;;;;;21076715;28;20028;-77
2023/12/10 20:41:14;;;;;;;;;;;6.00;99.90;;;;;;21092451;28;20043;-77
2023/12/10 20:51:16;;;;;;;8.45;2.15;;;6.30;99.90;;;;;;21087503;28;19943;-77
2023/12/10 21:01:16;;;;;;;3.13;1.00;;;6.70;99.90;;;;;;21087397;28;20026;-77
2023/12/10 21:11:18;;;;;;;7.63;3.00;;;7.30;99.90;;;;;;21088468;28;20473;-77
2023/12/10 21:21:18;;;;;;;;;;;7.00;99.90;;;;;;21069034;28;20392;-77
2023/12/10 21:31:19;;;;;;;4.40;1.70;;;6.50;99.90;;;;;;21100887;28;19955;-76
2023/12/10 21:41:20;;;;;;;4.93;1.00;;;6.90;99.90;;;;;;21109463;28;20572;-77
2023/12/10 21:51:21;;;;;;;3.60;1.40;;;7.50;99.90;;;;;;21130451;28;20480;-77
2023/12/10 22:01:22;;;;;;;1.00;0.50;;;7.70;99.90;;;;;;21108175;28;20392;-77
2023/12/10 22:11:23;;;;;;;9.00;1.70;;;8.20;99.90;;;;;;21130284;28;20365;-77
2023/12/10 22:21:23;;;;;;;;;;;7.80;99.90;;;;;;21130992;28;20049;-77
2023/12/10 22:31:24;;;;;;;1.37;0.60;;;8.00;99.90;;;;;;21125829;28;19998;-78
2023/12/10 22:41:25;;;;;;;1.70;1.10;;;8.10;99.90;;;;;;21126878;28;20540;-77
2023/12/10 22:51:26;;;;;;;3.03;1.60;;;7.80;99.90;;;;;;21132264;28;20078;-78
2023/12/10 23:01:27;;;;;;;7.38;2.13;;;7.20;99.90;;;;;;21128137;28;20059;-76
2023/12/10 23:11:27;;;;;;;5.77;1.40;;;7.10;99.90;;;;;;21128789;28;20032;-77
2023/12/10 23:21:28;;;;;;;7.93;2.10;;;7.20;99.90;;;;;;21126427;28;20084;-76
2023/12/10 23:31:29;;;;;;;5.50;2.53;;;7.40;99.90;;;;;;21119304;28;20066;-77
2023/12/10 23:41:36;;;;;;;4.07;2.23;;;7.40;99.90;;;;;;21127886;28;20057;-77
2023/12/10 23:51:37;;;;;;;5.60;2.10;;;7.40;99.90;;;;;;21131492;28;20273;-77
